Time;durP1;ratioP1;P1;durP2;ratioP2;P2;SDS_P1;SDS_P2;PMS_P1;PMS_P2;Temp;Humidity;BMP_temperature;BMP_pressure;BME280_temperature;BME280_humidity;BME280_pressure;Samples;Min_cycle;Max_cycle;Signal;HPM_P1;HPM_P2
2024/03/15 00:02:15;;;;;;;3.00;2.00;;;;;;;21.31;43.37;100521.69;4996643;28;20506;-61
2024/03/15 00:04:43;;;;;;;7.97;1.90;;;;;;;21.31;43.63;100516.22;5013973;28;20121;-62
2024/03/15 00:07:08;;;;;;;5.72;1.92;;;;;;;21.34;43.02;100521.28;4996631;28;20061;-62
2024/03/15 00:09:34;;;;;;;5.47;1.73;;;;;;;21.36;43.14;100519.16;5014105;28;20030;-62
2024/03/15 00:12:00;;;;;;;3.70;1.88;;;;;;;21.35;43.52;100522.97;5013975;28;20056;-62
2024/03/15 00:14:26;;;;;;;6.63;1.90;;;;;;;21.34;43.03;100519.41;5013948;28;20080;-61
2024/03/15 00:16:52;;;;;;;4.55;1.80;;;;;;;21.28;42.97;100509.31;4996491;28;20465;-61
2024/03/15 00:19:18;;;;;;;6.85;1.83;;;;;;;21.28;43.40;100495.69;4996347;28;20050;-62
2024/03/15 00:21:43;;;;;;;3.03;1.80;;;;;;;21.23;42.83;100492.75;4996285;28;20033;-61
2024/03/15 00:24:09;;;;;;;4.18;2.00;;;;;;;21.22;42.65;100493.78;4996265;28;20030;-61
2024/03/15 00:26:37;;;;;;;2.63;1.80;;;;;;;21.19;42.77;100496.09;4980102;28;20053;-61
2024/03/15 00:29:03;;;;;;;7.10;2.28;;;;;;;21.18;43.65;100498.00;4996154;28;20042;-61
2024/03/15 00:31:29;;;;;;;5.55;2.92;;;;;;;21.19;43.47;100498.84;4995966;28;20056;-63
2024/03/15 00:33:54;;;;;;;5.32;1.73;;;;;;;21.17;42.97;100509.91;4995863;28;20367;-61
2024/03/15 00:36:20;;;;;;;5.85;1.92;;;;;;;21.16;43.73;100518.31;4995166;28;20032;-61
2024/03/15 00:38:45;;;;;;;3.35;1.88;;;;;;;21.15;43.30;100508.44;5013469;28;20092;-61
2024/03/15 00:41:10;;;;;;;5.45;1.58;;;;;;;21.15;42.56;100513.91;4996381;28;20118;-62
2024/03/15 00:43:36;;;;;;;6.00;1.83;;;;;;;21.13;43.75;100514.13;4996325;28;20030;-62
2024/03/15 00:46:02;;;;;;;9.25;1.88;;;;;;;21.13;43.93;100508.66;4995885;28;20014;-61
2024/03/15 00:48:27;;;;;;;2.53;1.95;;;;;;;21.13;43.96;100516.84;4995917;28;20018;-62
2024/03/15 00:50:53;;;;;;;5.93;1.70;;;;;;;21.13;43.53;100519.56;4995737;28;20049;-61
2024/03/15 00:53:19;;;;;;;5.65;1.50;;;;;;;21.12;43.38;100511.59;4979423;28;20444;-61
2024/03/15 00:55:44;;;;;;;5.97;1.77;;;;;;;21.08;43.77;100510.31;4995742;28;20045;-61
2024/03/15 00:58:10;;;;;;;4.68;1.58;;;;;;;21.05;43.02;100500.63;5013175;28;20486;-61
2024/03/15 01:00:35;;;;;;;2.83;1.73;;;;;;;21.06;43.33;100513.22;4995398;28;20109;-61
2024/03/15 01:03:01;;;;;;;4.50;1.73;;;;;;;21.04;43.30;100509.84;4995556;28;20481;-62
2024/03/15 01:05:26;;;;;;;4.18;1.95;;;;;;;21.04;43.69;100504.41;4995964;28;20022;-61
2024/03/15 01:07:51;;;;;;;3.38;2.17;;;;;;;21.04;43.68;100506.28;4995564;28;20144;-61
2024/03/15 01:10:17;;;;;;;3.13;1.80;;;;;;;21.04;43.49;100509.00;4995645;28;20482;-61
2024/03/15 01:12:42;;;;;;;3.90;1.83;;;;;;;21.02;43.46;100503.75;4995535;28;20092;-62
2024/03/15 01:15:08;;;;;;;4.90;1.77;;;;;;;21.02;42.88;100501.03;4995733;28;20021;-62
2024/03/15 01:17:33;;;;;;;3.58;2.22;;;;;;;21.02;42.87;100501.03;5013264;28;20473;-63
2024/03/15 01:19:58;;;;;;;4.25;2.40;;;;;;;20.99;43.13;100498.75;4995744;28;20080;-61
2024/03/15 01:22:24;;;;;;;5.55;2.10;;;;;;;21.01;43.91;100501.25;4995569;28;20025;-61
2024/03/15 01:24:49;;;;;;;4.47;1.80;;;;;;;20.99;43.62;100492.44;4995582;28;20473;-62
2024/03/15 01:27:15;;;;;;;2.47;1.75;;;;;;;21.00;43.03;100497.69;4995307;28;20040;-62
2024/03/15 01:29:40;;;;;;;2.80;1.70;;;;;;;20.98;43.89;100496.22;4979370;28;20022;-61
2024/03/15 01:32:05;;;;;;;4.20;2.65;;;;;;;20.99;43.16;100506.06;4996131;28;20022;-61
2024/03/15 01:34:31;;;;;;;8.38;2.63;;;;;;;21.02;44.03;100505.66;4995356;28;20084;-63
2024/03/15 01:36:56;;;;;;;5.55;1.67;;;;;;;21.00;43.79;100505.00;5013075;28;20513;-61
2024/03/15 01:39:24;;;;;;;4.32;1.50;;;;;;;20.97;43.55;100498.09;5012734;28;20033;-61
2024/03/15 01:41:49;;;;;;;4.50;1.85;;;;;;;20.97;44.12;100491.78;5012745;28;20034;-65
2024/03/15 01:44:15;;;;;;;3.90;1.77;;;;;;;20.99;43.56;100489.72;4995977;28;20029;-65
2024/03/15 01:46:40;;;;;;;3.45;1.88;;;;;;;20.96;43.88;100493.72;5013918;28;20036;-66
2024/03/15 01:49:06;;;;;;;3.83;1.85;;;;;;;20.94;44.06;100493.03;4985134;28;20560;-67
2024/03/15 01:51:32;;;;;;;3.72;2.10;;;;;;;20.92;43.50;100484.25;5001515;28;20079;-65
2024/03/15 01:54:00;;;;;;;5.78;2.17;;;;;;;20.94;43.17;100487.59;5000068;28;20041;-64
2024/03/15 01:56:28;;;;;;;7.32;1.88;;;;;;;20.92;44.08;100478.81;4982988;28;20060;-64
2024/03/15 01:58:54;;;;;;;5.35;2.00;;;;;;;20.94;44.13;100487.59;4982682;28;20500;-64
2024/03/15 02:01:19;;;;;;;2.42;1.55;;;;;;;20.93;43.95;100480.50;4999331;28;20041;-65
2024/03/15 02:03:46;;;;;;;3.58;1.88;;;;;;;20.93;43.55;100485.94;4998872;28;20512;-64
2024/03/15 02:06:13;;;;;;;5.05;2.00;;;;;;;20.90;43.73;100475.47;5016330;28;20504;-65
2024/03/15 02:08:39;;;;;;;3.30;1.60;;;;;;;20.89;43.44;100476.50;4998643;28;20038;-65
2024/03/15 02:11:04;;;;;;;3.10;1.83;;;;;;;20.86;43.48;100485.06;4982535;28;20030;-65
2024/03/15 02:13:29;;;;;;;3.22;1.40;;;;;;;20.81;44.20;100482.97;5016245;28;20501;-65
2024/03/15 02:15:55;;;;;;;5.15;1.45;;;;;;;20.80;44.33;100484.00;4998949;28;20393;-65
2024/03/15 02:18:21;;;;;;;4.50;1.77;;;;;;;20.74;43.89;100482.09;4998925;28;20079;-64
2024/03/15 02:20:46;;;;;;;3.58;1.90;;;;;;;20.77;44.20;100491.75;5017093;28;20058;-65
2024/03/15 02:23:11;;;;;;;5.53;1.70;;;;;;;20.77;43.55;100484.41;5016167;28;20096;-64
2024/03/15 02:25:37;;;;;;;5.13;2.05;;;;;;;20.76;43.77;100490.06;4998897;28;20038;-64
2024/03/15 02:28:06;;;;;;;1.83;1.73;;;;;;;20.70;44.39;100485.44;4998271;28;20045;-65
2024/03/15 02:30:31;;;;;;;6.50;2.15;;;;;;;20.73;43.83;100495.91;4998296;28;20490;-64
2024/03/15 02:32:56;;;;;;;3.72;1.77;;;;;;;20.72;43.86;100491.50;4998418;28;20045;-64
2024/03/15 02:35:22;;;;;;;5.45;1.58;;;;;;;20.71;43.75;100493.41;4982133;28;20026;-64
2024/03/15 02:37:47;;;;;;;5.30;1.50;;;;;;;20.66;43.52;100484.97;5015905;28;20033;-65
2024/03/15 02:40:14;;;;;;;3.45;2.28;;;;;;;20.64;44.20;100491.69;4998340;28;20037;-64
2024/03/15 02:42:40;;;;;;;2.10;1.35;;;;;;;20.66;43.61;100486.91;5015580;28;20022;-64
2024/03/15 02:45:06;;;;;;;3.38;1.98;;;;;;;20.66;43.47;100500.50;5015716;28;20137;-64
2024/03/15 02:47:31;;;;;;;3.13;1.63;;;;;;;20.63;44.29;100500.91;4998154;28;20481;-65
2024/03/15 02:49:56;;;;;;;6.47;2.78;;;;;;;20.56;44.12;100491.84;5015574;28;20046;-65
2024/03/15 02:52:22;;;;;;;4.55;1.85;;;;;;;20.54;43.83;100486.63;4981707;28;20108;-62
2024/03/15 02:54:47;;;;;;;4.80;1.55;;;;;;;20.59;43.61;100499.63;4997934;28;20061;-61
2024/03/15 02:57:12;;;;;;;3.45;1.45;;;;;;;20.59;44.09;100500.47;4997915;28;20038;-61
2024/03/15 02:59:38;;;;;;;8.95;1.80;;;;;;;20.58;44.27;100504.22;5014502;28;20091;-61
2024/03/15 03:02:04;;;;;;;4.25;1.70;;;;;;;20.61;44.13;100505.69;5015363;28;20042;-62
2024/03/15 03:04:29;;;;;;;6.32;1.70;;;;;;;20.62;44.30;100502.78;5015444;28;20069;-62
2024/03/15 03:06:55;;;;;;;4.93;1.63;;;;;;;20.65;44.50;100505.09;4998019;28;20062;-61
2024/03/15 03:09:24;;;;;;;3.17;1.58;;;;;;;20.64;44.18;100497.13;5016001;28;20496;-65
2024/03/15 03:11:50;;;;;;;4.93;2.20;;;;;;;20.64;44.40;100508.84;5015555;28;20125;-62
2024/03/15 03:14:16;;;;;;;3.63;1.95;;;;;;;20.66;43.65;100500.50;4981483;28;20455;-61
2024/03/15 03:16:42;;;;;;;3.53;1.75;;;;;;;20.63;44.29;100504.44;5015135;28;20060;-61
2024/03/15 03:19:08;;;;;;;2.13;1.30;;;;;;;20.63;44.11;100507.16;4997628;28;20069;-62
2024/03/15 03:21:33;;;;;;;3.75;1.35;;;;;;;20.64;43.97;100508.84;4997937;28;20034;-66
2024/03/15 03:24:00;;;;;;;4.43;1.67;;;;;;;20.63;43.77;100506.34;4998677;28;20038;-61
2024/03/15 03:26:26;;;;;;;4.10;1.30;;;;;;;20.60;43.76;100510.28;4999258;28;20410;-65
2024/03/15 03:28:51;;;;;;;4.85;1.65;;;;;;;20.61;43.88;100511.97;5016456;28;20042;-61
2024/03/15 03:31:17;;;;;;;4.60;1.73;;;;;;;20.61;44.07;100502.97;4997763;28;20121;-61
2024/03/15 03:33:42;;;;;;;2.90;1.83;;;;;;;20.63;44.37;100507.16;4997240;28;20393;-61
2024/03/15 03:36:08;;;;;;;3.25;1.80;;;;;;;20.63;44.62;100512.59;5014906;28;20161;-61
2024/03/15 03:38:33;;;;;;;4.25;1.42;;;;;;;20.63;44.44;100509.06;4997355;28;20026;-61
2024/03/15 03:40:58;;;;;;;2.67;1.30;;;;;;;20.61;44.25;100509.25;5014665;28;20567;-61
2024/03/15 03:43:24;;;;;;;2.83;1.30;;;;;;;20.62;43.97;100515.53;4997205;28;20040;-61
2024/03/15 03:45:50;;;;;;;3.15;1.63;;;;;;;20.61;43.69;100516.56;4996951;28;20461;-61
2024/03/15 03:48:16;;;;;;;3.45;1.40;;;;;;;20.60;43.91;100507.56;5014464;28;20041;-61
2024/03/15 03:50:44;;;;;;;4.88;1.90;;;;;;;20.62;44.20;100510.94;4997166;28;20022;-61
2024/03/15 03:53:10;;;;;;;3.42;1.58;;;;;;;20.63;43.97;100509.88;4997353;28;20037;-62
2024/03/15 03:55:40;;;;;;;2.95;1.38;;;;;;;20.62;44.32;100513.66;5014291;28;20633;-62
2024/03/15 03:58:05;;;;;;;6.32;1.67;;;;;;;20.60;44.21;100501.31;4997906;28;20030;-62
2024/03/15 04:00:34;;;;;;;2.65;1.50;;;;;;;20.61;44.04;100516.56;4997513;28;20406;-61
2024/03/15 04:03:00;;;;;;;3.85;1.58;;;;;;;20.60;44.07;100517.63;5014281;28;20038;-61
2024/03/15 04:05:26;;;;;;;4.85;1.67;;;;;;;20.59;44.27;100513.22;5014146;28;20077;-61
2024/03/15 04:07:51;;;;;;;3.63;1.52;;;;;;;20.57;44.16;100518.03;4996772;28;20064;-61
2024/03/15 04:10:17;;;;;;;4.88;1.83;;;;;;;20.56;44.11;100519.06;5013345;28;20044;-62
2024/03/15 04:12:45;;;;;;;2.97;1.45;;;;;;;20.56;44.33;100519.06;4979903;28;20053;-62
2024/03/15 04:15:11;;;;;;;2.85;1.70;;;;;;;20.53;43.96;100516.75;4996962;28;20041;-62
2024/03/15 04:17:40;;;;;;;3.80;1.63;;;;;;;20.51;44.22;100527.00;4980186;28;20409;-62
2024/03/15 04:20:08;;;;;;;3.00;1.70;;;;;;;20.51;43.81;100524.28;4996565;28;20080;-61
2024/03/15 04:22:33;;;;;;;6.60;2.10;;;;;;;20.49;44.66;100523.66;5013975;28;20457;-61
2024/03/15 04:24:59;;;;;;;5.32;1.90;;;;;;;20.49;43.95;100527.19;5013798;28;20034;-62
2024/03/15 04:27:25;;;;;;;5.18;1.88;;;;;;;20.49;44.73;100529.09;4996311;28;20032;-62
2024/03/15 04:29:51;;;;;;;7.05;1.80;;;;;;;20.48;44.76;100524.69;5013562;28;20081;-62
2024/03/15 04:32:19;;;;;;;8.68;2.30;;;;;;;20.46;44.76;100521.31;4996049;28;20037;-61
2024/03/15 04:34:47;;;;;;;3.45;1.63;;;;;;;20.46;44.80;100527.63;4996867;28;20034;-61
2024/03/15 04:37:15;;;;;;;2.38;1.50;;;;;;;20.45;44.88;100520.47;4996483;28;20464;-61
2024/03/15 04:39:40;;;;;;;6.10;1.88;;;;;;;20.45;44.59;100525.06;5014204;28;20030;-62
2024/03/15 04:42:06;;;;;;;2.85;2.10;;;;;;;20.47;44.61;100523.00;4996306;28;20038;-61
2024/03/15 04:44:37;;;;;;;5.22;1.45;;;;;;;20.48;43.99;100519.25;5013856;28;20036;-62
2024/03/15 04:47:09;;;;;;;4.43;1.77;;;;;;;20.49;44.38;100520.94;4997431;28;20034;-62
2024/03/15 04:49:34;;;;;;;2.33;1.73;;;;;;;20.46;44.88;100524.03;5014401;28;20113;-62
2024/03/15 04:52:00;;;;;;;3.38;1.52;;;;;;;20.46;44.68;100527.63;4997295;28;20050;-64
2024/03/15 04:54:26;;;;;;;7.50;2.13;;;;;;;20.49;45.15;100518.22;4993848;28;20121;-62
2024/03/15 04:56:51;;;;;;;6.85;2.03;;;;;;;20.51;44.58;100521.56;4993772;28;20529;-67
2024/03/15 04:59:17;;;;;;;4.95;1.67;;;;;;;20.51;44.53;100521.56;4992657;28;20030;-62
2024/03/15 05:01:42;;;;;;;6.95;2.67;;;;;;;20.53;44.98;100524.91;4992384;28;20088;-62
2024/03/15 05:04:11;;;;;;;2.08;1.88;;;;;;;20.53;44.99;100527.63;4992930;28;20036;-61
2024/03/15 05:06:39;;;;;;;3.22;1.65;;;;;;;20.49;44.73;100515.47;4990475;28;20035;-62
2024/03/15 05:09:05;;;;;;;3.00;1.50;;;;;;;20.51;45.28;100524.28;4992277;28;20035;-62
2024/03/15 05:11:30;;;;;;;4.60;1.75;;;;;;;20.50;44.96;100517.16;4992335;28;20467;-62
2024/03/15 05:13:56;;;;;;;3.50;1.60;;;;;;;20.49;44.84;100516.31;4992440;28;20041;-61
2024/03/15 05:16:22;;;;;;;3.97;1.55;;;;;;;20.46;45.25;100515.88;4992273;28;20033;-62
2024/03/15 05:18:48;;;;;;;4.65;1.70;;;;;;;20.47;44.34;100523.00;4993439;28;20030;-61
2024/03/15 05:21:13;;;;;;;3.88;1.58;;;;;;;20.48;44.76;100519.25;4993359;28;20105;-62
2024/03/15 05:23:39;;;;;;;8.57;1.77;;;;;;;20.44;44.93;100510.63;4992189;28;20073;-62
2024/03/15 05:26:07;;;;;;;4.47;2.08;;;;;;;20.42;44.83;100509.16;4993405;28;20057;-62
2024/03/15 05:28:33;;;;;;;4.45;1.42;;;;;;;20.42;44.76;100525.47;4992291;28;20502;-62
2024/03/15 05:30:59;;;;;;;4.85;1.27;;;;;;;20.47;45.03;100514.81;4992342;28;20040;-61
2024/03/15 05:33:24;;;;;;;6.53;1.60;;;;;;;20.48;44.96;100519.25;4992141;28;20035;-61
2024/03/15 05:35:51;;;;;;;3.33;1.38;;;;;;;20.47;44.81;100514.81;4993338;28;20041;-62
2024/03/15 05:38:17;;;;;;;6.85;1.73;;;;;;;20.46;45.00;100521.31;4994045;28;20036;-61
2024/03/15 05:40:42;;;;;;;4.53;1.60;;;;;;;20.47;45.09;100523.00;4992117;28;20117;-61
2024/03/15 05:43:07;;;;;;;4.18;1.48;;;;;;;20.48;45.38;100527.41;4991966;28;20524;-62
2024/03/15 05:45:33;;;;;;;5.03;1.65;;;;;;;20.45;44.96;100525.06;4993336;28;20031;-61
2024/03/15 05:47:58;;;;;;;5.78;1.92;;;;;;;20.45;45.23;100514.19;4992001;28;20042;-62
2024/03/15 05:50:23;;;;;;;6.38;2.03;;;;;;;20.45;44.75;100525.91;4991992;28;20148;-62
2024/03/15 05:52:49;;;;;;;5.85;2.08;;;;;;;20.47;45.02;100523.00;4993194;28;20050;-62
2024/03/15 05:55:15;;;;;;;3.33;1.25;;;;;;;20.48;45.78;100521.97;5003107;28;20050;-62
2024/03/15 05:57:41;;;;;;;2.03;1.20;;;;;;;20.46;45.31;100522.16;5012641;28;20042;-61
2024/03/15 06:00:12;;;;;;;2.75;1.55;;;;;;;20.49;45.00;100534.53;4995376;28;20030;-63
2024/03/15 06:02:38;;;;;;;3.92;1.42;;;;;;;20.51;45.62;100541.47;4995527;28;20516;-62
2024/03/15 06:05:05;;;;;;;2.88;1.75;;;;;;;20.51;45.55;100530.56;4995138;28;20029;-63
2024/03/15 06:07:30;;;;;;;5.38;1.40;;;;;;;20.54;44.79;100534.78;4978542;28;20026;-62
2024/03/15 06:09:55;;;;;;;3.30;1.40;;;;;;;20.51;44.98;100541.47;5012548;28;20675;-62
2024/03/15 06:12:27;;;;;;;7.05;1.75;;;;;;;20.54;45.36;100548.38;4995043;28;20100;-62
2024/03/15 06:14:53;;;;;;;8.40;1.80;;;;;;;20.54;45.81;100551.09;4995928;28;20529;-62
2024/03/15 06:17:18;;;;;;;6.75;2.08;;;;;;;20.50;45.26;100557.97;5012309;28;20026;-62
2024/03/15 06:19:43;;;;;;;2.17;1.70;;;;;;;20.45;45.52;100552.28;4995037;28;20351;-62
2024/03/15 06:22:09;;;;;;;4.53;1.77;;;;;;;20.40;45.88;100557.50;4979025;28;20109;-62
2024/03/15 06:24:34;;;;;;;2.45;1.65;;;;;;;20.37;45.31;100555.16;5012468;28;20025;-62
2024/03/15 06:27:01;;;;;;;4.40;2.00;;;;;;;20.38;46.03;100565.03;5013673;28;20105;-62
2024/03/15 06:29:36;;;;;;;4.70;1.42;;;;;;;20.36;46.12;100558.91;5012221;28;20076;-62
2024/03/15 06:32:01;;;;;;;3.65;1.80;;;;;;;20.37;46.24;100561.47;4994346;28;20037;-61
2024/03/15 06:34:31;;;;;;;2.92;1.42;;;;;;;20.39;45.91;100566.69;5013400;28;20041;-61
2024/03/15 06:36:58;;;;;;;2.88;1.75;;;;;;;20.38;45.90;100563.13;5016069;28;20044;-63
2024/03/15 06:42:10;;;;;;;3.90;1.90;;;;;;;20.33;45.90;100561.00;5015952;28;20049;-62
2024/03/15 06:44:45;;;;;;;5.50;1.73;;;;;;;20.32;46.68;100559.31;4999756;28;20022;-62
2024/03/15 06:52:35;;;;;;;6.05;2.30;;;;;;;20.31;46.54;100565.81;5015522;28;20036;-63
2024/03/15 06:55:06;;;;;;;3.40;1.80;;;;;;;20.30;46.97;100569.56;4999880;28;20050;-63
2024/03/15 06:57:32;;;;;;;4.60;1.90;;;;;;;20.34;47.19;100572.75;5015374;28;20030;-63
2024/03/15 06:59:58;;;;;;;5.90;2.08;;;;;;;20.33;46.39;100574.63;4997979;28;20034;-63
2024/03/15 07:02:24;;;;;;;5.85;2.00;;;;;;;20.36;47.29;100580.69;5015319;28;20052;-62
2024/03/15 07:04:52;;;;;;;5.15;1.98;;;;;;;20.37;46.96;100582.38;4997977;28;20448;-62
2024/03/15 07:07:18;;;;;;;2.90;1.80;;;;;;;20.41;46.70;100586.41;5015342;28;20540;-63
2024/03/15 07:09:44;;;;;;;5.10;2.30;;;;;;;20.44;46.92;100588.69;4997729;28;20116;-63
2024/03/15 07:12:10;;;;;;;3.33;1.92;;;;;;;20.48;46.61;100584.56;5014988;28;20076;-63
2024/03/15 07:14:39;;;;;;;3.72;2.03;;;;;;;20.48;47.25;100579.09;4997229;28;20493;-63
2024/03/15 07:17:05;;;;;;;3.15;2.08;;;;;;;20.57;46.83;100586.09;5016861;28;20126;-63
2024/03/15 07:19:32;;;;;;;2.88;2.08;;;;;;;20.59;47.24;100593.00;4997683;28;20460;-64
2024/03/15 07:21:57;;;;;;;7.10;2.13;;;;;;;20.61;46.86;100595.50;4997880;28;20038;-63
2024/03/15 07:24:23;;;;;;;3.92;2.33;;;;;;;20.63;47.57;100588.00;4981800;28;20029;-63
2024/03/15 07:26:48;;;;;;;5.70;1.95;;;;;;;20.66;47.37;100593.06;4997845;28;20495;-63
2024/03/15 07:29:14;;;;;;;3.15;1.90;;;;;;;20.67;47.18;100597.44;4997831;28;20049;-63
2024/03/15 07:31:39;;;;;;;4.15;2.40;;;;;;;20.70;47.06;100600.59;4981663;28;20041;-63
2024/03/15 07:34:05;;;;;;;3.75;2.10;;;;;;;20.73;47.22;100593.91;4997612;28;20034;-63
2024/03/15 07:36:32;;;;;;;2.20;1.60;;;;;;;20.78;46.78;100591.44;4997809;28;20037;-64
2024/03/15 07:38:57;;;;;;;10.25;2.40;;;;;;;20.87;46.63;100595.69;4998229;28;20037;-63
2024/03/15 07:41:27;;;;;;;5.60;2.53;;;;;;;20.96;46.86;100590.91;5015140;28;20034;-63
2024/03/15 07:43:53;;;;;;;4.47;2.33;;;;;;;21.05;46.67;100593.22;4998119;28;20036;-64
2024/03/15 07:46:18;;;;;;;3.78;2.00;;;;;;;21.14;46.77;100600.22;5014418;28;20030;-63
2024/03/15 07:48:44;;;;;;;4.10;1.60;;;;;;;21.20;46.15;100591.25;4997404;28;20038;-63
2024/03/15 07:51:09;;;;;;;6.80;2.20;;;;;;;21.39;46.42;100590.47;5014681;28;20133;-63
2024/03/15 07:53:34;;;;;;;4.68;2.20;;;;;;;21.49;45.75;100590.09;4999430;28;20068;-65
2024/03/15 07:56:03;;;;;;;4.13;2.03;;;;;;;21.94;46.11;100599.44;4998728;28;20092;-64
2024/03/15 07:58:29;;;;;;;2.83;2.10;;;;;;;22.23;45.85;100593.53;4998872;28;20551;-63
2024/03/15 08:00:56;;;;;;;9.75;1.58;;;;;;;22.33;45.05;100595.88;5015805;28;20038;-65
2024/03/15 08:03:22;;;;;;;4.28;1.58;;;;;;;22.46;46.03;100593.94;4998586;28;20038;-63
2024/03/15 08:05:48;;;;;;;6.72;2.42;;;;;;;22.51;45.07;100585.97;4999795;28;20445;-74
2024/03/15 08:08:14;;;;;;;3.40;2.35;;;;;;;22.59;45.69;100599.38;4996586;28;20486;-65
2024/03/15 08:10:39;;;;;;;5.60;1.73;;;;;;;22.68;45.20;100596.47;4996613;28;20025;-64
2024/03/15 08:13:05;;;;;;;5.47;2.20;;;;;;;22.83;44.99;100594.31;4996764;28;20022;-63
2024/03/15 08:15:32;;;;;;;3.67;1.80;;;;;;;22.99;45.24;100591.97;4980259;28;20398;-63
2024/03/15 08:18:00;;;;;;;4.13;1.55;;;;;;;23.46;44.52;100590.72;5014027;28;20096;-63
2024/03/15 08:20:26;;;;;;;4.07;1.60;;;;;;;23.77;43.99;100587.16;4980184;28;20466;-63
2024/03/15 08:22:55;;;;;;;4.90;1.95;;;;;;;23.87;43.99;100586.69;4996730;28;20032;-63
2024/03/15 08:25:21;;;;;;;8.65;2.03;;;;;;;23.90;43.83;100587.06;4996981;28;20050;-63
2024/03/15 08:27:46;;;;;;;2.97;1.88;;;;;;;24.32;43.46;100590.97;5013695;28;20053;-63
2024/03/15 08:30:14;;;;;;;4.40;1.60;;;;;;;24.07;44.04;100588.19;4996041;28;20037;-63
2024/03/15 08:32:40;;;;;;;4.22;1.58;;;;;;;23.91;44.34;100585.16;5013568;28;20022;-63
2024/03/15 08:35:08;;;;;;;3.70;1.77;;;;;;;23.76;44.13;100586.31;4996516;28;20036;-63
2024/03/15 08:37:33;;;;;;;2.13;1.20;;;;;;;23.68;44.48;100594.78;5013359;28;20482;-63
2024/03/15 08:39:59;;;;;;;4.00;1.60;;;;;;;23.59;44.15;100593.38;4996165;28;20044;-63
2024/03/15 08:42:24;;;;;;;3.20;1.35;;;;;;;23.49;44.03;100600.38;4995566;28;20030;-63
2024/03/15 08:44:49;;;;;;;4.43;1.30;;;;;;;23.43;43.80;100590.31;4995864;28;20091;-63
2024/03/15 08:47:18;;;;;;;2.97;1.55;;;;;;;23.41;44.68;100597.91;4995957;28;20386;-63
2024/03/15 08:49:45;;;;;;;2.78;1.38;;;;;;;23.43;44.36;100602.09;5013315;28;20513;-63
2024/03/15 08:52:15;;;;;;;1.77;1.25;;;;;;;23.71;43.80;100598.97;5013557;28;20040;-63
2024/03/15 08:54:41;;;;;;;5.00;1.65;;;;;;;23.91;43.43;100612.53;4981601;28;20046;-63
2024/03/15 08:57:06;;;;;;;3.53;1.38;;;;;;;24.06;43.34;100607.59;5013410;28;20041;-63
2024/03/15 08:59:33;;;;;;;4.45;1.67;;;;;;;24.08;43.22;100610.94;4996018;28;20036;-63
2024/03/15 09:01:59;;;;;;;3.13;1.88;;;;;;;24.30;43.21;100606.78;4995764;28;20081;-63
2024/03/15 09:04:24;;;;;;;2.38;1.20;;;;;;;24.12;43.33;100602.06;5013467;28;20493;-63
2024/03/15 09:06:51;;;;;;;4.35;1.88;;;;;;;23.87;43.69;100608.59;5013319;28;20058;-64
2024/03/15 09:09:21;;;;;;;2.65;1.75;;;;;;;23.64;43.51;100604.50;4995365;28;20112;-63
2024/03/15 09:11:46;;;;;;;2.95;1.65;;;;;;;23.46;43.96;100607.13;4979783;28;20505;-63
2024/03/15 09:14:17;;;;;;;2.35;1.13;;;;;;;23.35;43.76;100616.00;4995532;28;20038;-63
2024/03/15 09:16:43;;;;;;;4.00;1.15;;;;;;;23.27;44.17;100608.03;4980110;28;20030;-63
2024/03/15 09:19:09;;;;;;;5.03;1.17;;;;;;;23.15;43.69;100610.59;4995326;28;20128;-63
2024/03/15 09:21:36;;;;;;;5.05;1.77;;;;;;;23.10;44.24;100604.94;4995340;28;20030;-63
2024/03/15 09:24:02;;;;;;;2.92;1.48;;;;;;;23.12;43.55;100613.75;5012940;28;20042;-63
2024/03/15 09:26:28;;;;;;;2.15;1.25;;;;;;;23.15;43.84;100612.50;5013021;28;20022;-63
2024/03/15 09:28:55;;;;;;;5.70;1.35;;;;;;;23.14;43.47;100611.66;5012892;28;20468;-63
2024/03/15 09:31:24;;;;;;;4.38;1.00;;;;;;;23.13;44.31;100618.19;5013124;28;20121;-63
2024/03/15 09:33:50;;;;;;;2.38;1.00;;;;;;;23.09;44.13;100621.56;5012702;28;20501;-63
2024/03/15 09:36:17;;;;;;;2.78;1.45;;;;;;;23.09;44.58;100616.09;4995606;28;20034;-63
2024/03/15 09:38:46;;;;;;;2.58;1.13;;;;;;;23.22;44.25;100624.25;5012912;28;20030;-63
2024/03/15 09:41:14;;;;;;;3.92;1.10;;;;;;;23.28;43.69;100620.66;5012889;28;20034;-63
2024/03/15 09:43:39;;;;;;;4.00;1.13;;;;;;;23.43;43.55;100623.13;4979902;28;20030;-63
2024/03/15 09:46:06;;;;;;;6.90;1.08;;;;;;;23.69;43.76;100612.91;4996039;28;20091;-63
2024/03/15 09:48:35;;;;;;;1.75;0.93;;;;;;;23.98;42.61;100621.56;4995582;28;20034;-63
2024/03/15 09:51:03;;;;;;;2.75;1.13;;;;;;;24.28;42.29;100607.03;4995072;28;20540;-63
2024/03/15 09:53:29;;;;;;;4.05;0.90;;;;;;;24.20;42.80;100609.19;5012963;28;20454;-63
2024/03/15 09:55:56;;;;;;;1.95;1.50;;;;;;;24.09;42.88;100615.38;4978815;28;20046;-63
2024/03/15 09:58:23;;;;;;;4.38;0.93;;;;;;;23.97;43.12;100611.66;5012740;28;20049;-63
2024/03/15 10:00:48;;;;;;;3.42;0.98;;;;;;;23.85;43.38;100605.19;4995124;28;20030;-63
2024/03/15 10:03:14;;;;;;;1.48;1.17;;;;;;;23.80;43.37;100608.63;5012891;28;20038;-64
2024/03/15 10:05:39;;;;;;;2.75;0.70;;;;;;;23.82;43.22;100611.13;5012537;28;20072;-63
2024/03/15 10:08:06;;;;;;;2.78;0.85;;;;;;;23.81;42.86;100612.19;4995601;28;20108;-64
2024/03/15 10:10:32;;;;;;;4.82;1.10;;;;;;;23.86;43.87;100606.88;4999150;28;20038;-63
2024/03/15 10:12:58;;;;;;;2.17;1.00;;;;;;;24.17;42.69;100604.16;5016415;28;20498;-63
2024/03/15 10:15:23;;;;;;;3.38;0.73;;;;;;;24.87;41.89;100605.63;4998682;28;20030;-63
2024/03/15 10:17:53;;;;;;;1.75;0.60;;;;;;;24.89;41.71;100601.59;4998967;28;20038;-63
2024/03/15 10:20:21;;;;;;;2.40;0.93;;;;;;;25.08;41.67;100605.16;4998778;28;20535;-64
2024/03/15 10:22:48;;;;;;;4.90;1.58;;;;;;;25.14;41.63;100606.13;5016160;28;20034;-63
2024/03/15 10:25:15;;;;;;;1.92;0.93;;;;;;;25.01;41.83;100609.03;4999062;28;20037;-63
2024/03/15 10:27:44;;;;;;;4.85;1.00;;;;;;;24.92;41.38;100610.41;4982210;28;20030;-63
2024/03/15 10:30:28;;;;;;;1.42;0.85;;;;;;;24.84;41.80;100603.34;5015962;28;20034;-63
2024/03/15 10:32:55;;;;;;;1.55;0.57;;;;;;;24.75;41.58;100610.97;4999836;28;20402;-64
2024/03/15 10:35:27;;;;;;;1.17;0.65;;;;;;;24.65;41.53;100612.56;5016673;28;20030;-63
2024/03/15 10:37:53;;;;;;;3.15;0.70;;;;;;;24.56;41.73;100617.50;4982781;28;20034;-64
2024/03/15 10:40:23;;;;;;;2.03;0.63;;;;;;;24.47;41.42;100604.31;5015942;28;20034;-63
2024/03/15 10:42:51;;;;;;;1.77;0.57;;;;;;;24.30;41.62;100628.69;4982626;28;20490;-63
2024/03/15 10:45:23;;;;;;;2.45;0.55;;;;;;;24.12;41.67;100618.50;5015651;28;20408;-64
2024/03/15 10:47:48;;;;;;;1.93;0.87;;;;;;;23.99;41.78;100617.72;4982135;28;20053;-63
2024/03/15 10:50:18;;;;;;;1.35;0.60;;;;;;;23.98;42.10;100621.56;5015725;28;20263;-64
2024/03/15 10:52:45;;;;;;;1.15;0.50;;;;;;;24.09;41.74;100612.63;4998092;28;20044;-63
2024/03/15 10:55:15;;;;;;;1.15;0.55;;;;;;;24.20;41.35;100609.19;4997926;28;20513;-65
2024/03/15 10:57:40;;;;;;;1.23;0.40;;;;;;;24.25;41.34;100615.69;5016121;28;20112;-63
2024/03/15 11:00:14;;;;;;;1.30;0.65;;;;;;;24.30;41.35;100606.78;4998720;28;20042;-64
2024/03/15 11:02:41;;;;;;;1.50;0.60;;;;;;;24.45;41.14;100606.44;5016309;28;20030;-65
2024/03/15 11:05:09;;;;;;;0.68;0.52;;;;;;;24.51;41.21;100611.84;4999590;28;20038;-63
2024/03/15 11:07:35;;;;;;;2.95;1.00;;;;;;;25.03;40.25;100604.16;4998985;28;20559;-63
2024/03/15 11:10:06;;;;;;;2.00;0.68;;;;;;;26.04;39.32;100599.63;5015133;28;20046;-64
2024/03/15 11:12:36;;;;;;;2.97;0.57;;;;;;;25.82;40.10;100599.34;4981683;28;20095;-63
2024/03/15 11:15:08;;;;;;;3.60;0.55;;;;;;;25.56;40.07;100599.72;5015154;28;20026;-63
2024/03/15 11:17:33;;;;;;;2.73;0.40;;;;;;;25.35;39.85;100598.25;4997993;28;20498;-63
2024/03/15 11:20:05;;;;;;;4.35;0.60;;;;;;;25.18;39.93;100607.38;5014233;28;20034;-63
2024/03/15 11:22:30;;;;;;;4.15;0.70;;;;;;;24.99;40.27;100602.94;4998246;28;20434;-63
2024/03/15 11:24:58;;;;;;;1.13;0.68;;;;;;;24.86;39.94;100607.53;4981495;28;20145;-64
2024/03/15 11:27:24;;;;;;;2.67;0.50;;;;;;;24.80;40.40;100613.91;4997520;28;20030;-63
2024/03/15 11:29:55;;;;;;;0.98;0.68;;;;;;;24.88;40.17;100610.88;5015014;28;20042;-63